sensor_id;sensor_type;location;lat;lon;timestamp;pressure;altitude;pressure_sealevel;temperature;humidity
59168;BME280;44948;55.046;73.266;2023-04-19T20:02:01;102020.72;;;-6.04;53.02
59168;BME280;44948;55.046;73.266;2023-04-19T20:05:06;102017.69;;;-5.90;55.50
59168;BME280;44948;55.046;73.266;2023-04-19T20:08:10;102012.16;;;-5.72;55.80
59168;BME280;44948;55.046;73.266;2023-04-19T20:11:13;102018.72;;;-5.47;55.70
59168;BME280;44948;55.046;73.266;2023-04-19T20:14:16;102023.41;;;-5.28;56.04
59168;BME280;44948;55.046;73.266;2023-04-19T20:17:18;102019.56;;;-5.09;56.36
59168;BME280;44948;55.046;73.266;2023-04-19T20:20:26;102009.63;;;-4.94;56.10
59168;BME280;44948;55.046;73.266;2023-04-19T20:23:29;102008.13;;;-4.84;55.54
59168;BME280;44948;55.046;73.266;2023-04-19T20:26:36;102004.25;;;-4.65;54.83
59168;BME280;44948;55.046;73.266;2023-04-19T20:29:44;102005.25;;;-4.55;55.17
59168;BME280;44948;55.046;73.266;2023-04-19T20:32:51;102008.88;;;-4.44;54.80
59168;BME280;44948;55.046;73.266;2023-04-19T20:35:53;102007.31;;;-4.36;54.05
59168;BME280;44948;55.046;73.266;2023-04-19T20:39:00;101998.75;;;-4.38;54.99
59168;BME280;44948;55.046;73.266;2023-04-19T20:42:05;102004.84;;;-4.33;53.74
59168;BME280;44948;55.046;73.266;2023-04-19T20:45:18;101987.53;;;-4.45;53.83
59168;BME280;44948;55.046;73.266;2023-04-19T20:48:31;101992.78;;;-4.37;53.98
59168;BME280;44948;55.046;73.266;2023-04-19T20:51:33;102002.13;;;-4.39;53.52
59168;BME280;44948;55.046;73.266;2023-04-19T20:54:35;101989.25;;;-4.44;53.39
59168;BME280;44948;55.046;73.266;2023-04-19T20:57:45;101994.28;;;-4.50;53.50
59168;BME280;44948;55.046;73.266;2023-04-19T21:00:48;101977.94;;;-4.56;53.42
59168;BME280;44948;55.046;73.266;2023-04-19T21:03:51;101987.31;;;-4.55;53.22
59168;BME280;44948;55.046;73.266;2023-04-19T21:06:54;101992.41;;;-4.58;53.88
59168;BME280;44948;55.046;73.266;2023-04-19T21:10:01;102000.94;;;-4.58;53.41
59168;BME280;44948;55.046;73.266;2023-04-19T21:13:07;101997.53;;;-4.58;52.63
59168;BME280;44948;55.046;73.266;2023-04-19T21:16:19;101995.78;;;-4.61;53.64
59168;BME280;44948;55.046;73.266;2023-04-19T21:19:22;101998.28;;;-4.64;53.09
59168;BME280;44948;55.046;73.266;2023-04-19T21:22:25;101994.91;;;-4.61;53.31
59168;BME280;44948;55.046;73.266;2023-04-19T21:25:27;101989.78;;;-4.61;53.55
59168;BME280;44948;55.046;73.266;2023-04-19T21:28:33;101988.94;;;-4.62;53.13
59168;BME280;44948;55.046;73.266;2023-04-19T21:31:45;101991.47;;;-4.64;53.25
59168;BME280;44948;55.046;73.266;2023-04-19T21:34:47;101984.66;;;-4.63;53.31
59168;BME280;44948;55.046;73.266;2023-04-19T21:37:50;101984.47;;;-4.71;52.81
59168;BME280;44948;55.046;73.266;2023-04-19T21:40:57;101999.94;;;-4.68;52.71
59168;BME280;44948;55.046;73.266;2023-04-19T21:44:02;101986.84;;;-4.81;53.22
59168;BME280;44948;55.046;73.266;2023-04-19T21:47:06;101991.16;;;-4.79;53.23
59168;BME280;44948;55.046;73.266;2023-04-19T21:50:09;101990.19;;;-4.85;52.75
59168;BME280;44948;55.046;73.266;2023-04-19T21:53:11;101981.50;;;-4.92;52.87
59168;BME280;44948;55.046;73.266;2023-04-19T21:56:24;101990.81;;;-4.97;52.89
59168;BME280;44948;55.046;73.266;2023-04-19T21:59:27;101969.19;;;-5.11;52.64
59168;BME280;44948;55.046;73.266;2023-04-19T22:02:31;101978.63;;;-5.07;53.84
59168;BME280;44948;55.046;73.266;2023-04-19T22:05:34;101977.75;;;-5.09;53.58
59168;BME280;44948;55.046;73.266;2023-04-19T22:08:41;101976.81;;;-5.14;53.50
59168;BME280;44948;55.046;73.266;2023-04-19T22:11:50;101988.75;;;-5.13;53.31
59168;BME280;44948;55.046;73.266;2023-04-19T22:14:53;101990.50;;;-5.12;53.68
59168;BME280;44948;55.046;73.266;2023-04-19T22:18:02;101980.13;;;-5.18;53.25
59168;BME280;44948;55.046;73.266;2023-04-19T22:21:06;101988.56;;;-5.22;53.76
59168;BME280;44948;55.046;73.266;2023-04-19T22:24:10;101988.50;;;-5.26;53.80
59168;BME280;44948;55.046;73.266;2023-04-19T22:27:13;101987.50;;;-5.32;54.48
59168;BME280;44948;55.046;73.266;2023-04-19T22:30:15;101986.59;;;-5.36;54.46
59168;BME280;44948;55.046;73.266;2023-04-19T22:33:18;101984.72;;;-5.43;54.30
59168;BME280;44948;55.046;73.266;2023-04-19T22:36:21;101985.41;;;-5.50;53.84
59168;BME280;44948;55.046;73.266;2023-04-19T22:39:24;101993.03;;;-5.53;54.63
59168;BME280;44948;55.046;73.266;2023-04-19T22:42:37;101984.53;;;-5.52;54.23
59168;BME280;44948;55.046;73.266;2023-04-19T22:45:39;101980.91;;;-5.60;54.10
59168;BME280;44948;55.046;73.266;2023-04-19T22:48:47;101989.53;;;-5.55;54.09
59168;BME280;44948;55.046;73.266;2023-04-19T22:52:00;101990.22;;;-5.64;54.20
59168;BME280;44948;55.046;73.266;2023-04-19T22:55:03;101985.75;;;-5.72;54.13
59168;BME280;44948;55.046;73.266;2023-04-19T22:58:07;101989.63;;;-5.88;54.06
59168;BME280;44948;55.046;73.266;2023-04-19T23:01:12;101992.84;;;-5.97;54.67
59168;BME280;44948;55.046;73.266;2023-04-19T23:04:25;101986.84;;;-5.99;54.47
59168;BME280;44948;55.046;73.266;2023-04-19T23:07:27;101987.63;;;-6.01;54.90
59168;BME280;44948;55.046;73.266;2023-04-19T23:10:35;101969.53;;;-6.09;54.56
59168;BME280;44948;55.046;73.266;2023-04-19T23:13:49;101947.88;;;-6.25;55.06
59168;BME280;44948;55.046;73.266;2023-04-19T23:16:59;101984.94;;;-6.06;55.54
59168;BME280;44948;55.046;73.266;2023-04-19T23:20:05;101985.69;;;-6.10;55.27
59168;BME280;44948;55.046;73.266;2023-04-19T23:23:09;101990.09;;;-6.04;55.37
59168;BME280;44948;55.046;73.266;2023-04-19T23:26:13;101994.47;;;-6.00;55.41
59168;BME280;44948;55.046;73.266;2023-04-19T23:29:16;101988.50;;;-6.01;56.15
59168;BME280;44948;55.046;73.266;2023-04-19T23:32:18;101991.88;;;-6.02;56.00
59168;BME280;44948;55.046;73.266;2023-04-19T23:35:21;101994.44;;;-6.02;55.49
59168;BME280;44948;55.046;73.266;2023-04-19T23:38:24;101992.75;;;-6.01;55.51
59168;BME280;44948;55.046;73.266;2023-04-19T23:41:26;101997.72;;;-6.06;55.53
59168;BME280;44948;55.046;73.266;2023-04-19T23:44:39;101987.25;;;-6.17;55.74
59168;BME280;44948;55.046;73.266;2023-04-19T23:47:47;101991.69;;;-6.08;56.15
59168;BME280;44948;55.046;73.266;2023-04-19T23:50:54;101997.06;;;-5.99;55.94
59168;BME280;44948;55.046;73.266;2023-04-19T23:54:02;101987.81;;;-5.94;55.89
59168;BME280;44948;55.046;73.266;2023-04-19T23:57:04;101984.41;;;-5.93;55.63
